Time;durP1;ratioP1;P1;durP2;ratioP2;P2;SDS_P1;SDS_P2;PMS_P1;PMS_P2;Temp;Humidity;BMP_temperature;BMP_pressure;BME280_temperature;BME280_humidity;BME280_pressure;Samples;Min_cycle;Max_cycle;Signal;HPM_P1;HPM_P2
2022/10/27 00:00:18;;;;;;;16.48;5.70;;;13.00;99.90;;;;;;4993731;28;20485;-89
2022/10/27 00:02:44;;;;;;;19.35;5.30;;;13.00;99.90;;;;;;4976526;28;20517;-90
2022/10/27 00:05:10;;;;;;;20.83;6.50;;;13.00;99.90;;;;;;4993193;28;20049;-83
2022/10/27 00:07:37;;;;;;;19.63;6.38;;;13.00;99.90;;;;;;4974023;28;20062;-82
2022/10/27 00:10:07;;;;;;;16.20;6.30;;;13.00;99.90;;;;;;4992841;28;20050;-85
2022/10/27 00:12:34;;;;;;;20.85;5.50;;;13.00;99.90;;;;;;4992045;28;20072;-87
2022/10/27 00:15:00;;;;;;;16.42;5.15;;;13.00;99.90;;;;;;4992981;28;20051;-84
2022/10/27 00:17:27;;;;;;;18.50;5.93;;;13.00;99.90;;;;;;4993136;28;20054;-84
2022/10/27 00:19:53;;;;;;;18.05;5.65;;;13.00;99.90;;;;;;4994891;28;20648;-83
2022/10/27 00:22:19;;;;;;;15.85;5.55;;;13.00;99.90;;;;;;4991991;28;20070;-82
2022/10/27 00:24:48;;;;;;;19.48;6.45;;;13.00;99.90;;;;;;4994193;28;20125;-82
2022/10/27 00:27:14;;;;;;;18.55;5.63;;;13.00;99.90;;;;;;4974658;28;20066;-84
2022/10/27 00:29:40;;;;;;;14.13;5.68;;;12.90;99.90;;;;;;4996144;28;20057;-87
2022/10/27 00:34:41;;;;;;;16.05;5.03;;;13.00;99.90;;;;;;5202228;23;20061;-86
2022/10/27 00:37:07;;;;;;;16.52;5.72;;;13.00;99.90;;;;;;5032003;28;20433;-88
2022/10/27 00:39:33;;;;;;;17.40;5.57;;;13.00;99.90;;;;;;5031112;28;20062;-86
2022/10/27 00:42:36;;;;;;;19.92;5.85;;;13.00;99.90;;;;;;5014020;28;20148;-82
2022/10/27 00:45:02;;;;;;;19.05;5.22;;;12.90;99.90;;;;;;5032258;28;20037;-82
2022/10/27 00:47:33;;;;;;;21.80;6.47;;;12.90;99.90;;;;;;5034303;28;20528;-82
2022/10/27 00:50:16;;;;;;;19.00;5.50;;;12.90;99.90;;;;;;5013977;28;20053;-83
2022/10/27 00:52:43;;;;;;;20.75;5.68;;;12.80;99.90;;;;;;5030852;28;20084;-82
2022/10/27 00:55:26;;;;;;;11.18;4.50;;;12.80;99.90;;;;;;5031082;28;20053;-82
2022/10/27 00:57:56;;;;;;;24.42;5.72;;;12.80;99.90;;;;;;5032217;28;20382;-85
2022/10/27 01:00:21;;;;;;;16.33;6.00;;;12.90;99.90;;;;;;5017631;28;20049;-88
2022/10/27 01:02:48;;;;;;;16.48;5.53;;;12.80;99.90;;;;;;5036451;28;20049;-83
2022/10/27 01:05:18;;;;;;;19.13;6.22;;;12.80;99.90;;;;;;5036354;28;20049;-83
2022/10/27 01:07:46;;;;;;;26.50;5.88;;;12.90;99.90;;;;;;5036358;28;20100;-89
2022/10/27 01:10:13;;;;;;;19.92;5.65;;;12.90;99.90;;;;;;5036582;28;20056;-83
2022/10/27 01:12:40;;;;;;;25.55;6.38;;;12.90;99.90;;;;;;5018780;28;20076;-86
2022/10/27 01:15:08;;;;;;;15.88;5.22;;;12.90;99.90;;;;;;5018693;28;20052;-84
2022/10/27 01:17:49;;;;;;;22.30;7.07;;;13.00;99.90;;;;;;5005124;28;20045;-83
2022/10/27 01:20:30;;;;;;;16.35;6.07;;;12.90;99.90;;;;;;5038957;28;20056;-84
2022/10/27 01:23:02;;;;;;;19.08;6.30;;;13.00;99.90;;;;;;5038834;28;20057;-83
2022/10/27 01:26:05;;;;;;;18.23;6.00;;;13.00;99.90;;;;;;5019891;28;20107;-83
2022/10/27 01:28:50;;;;;;;26.20;6.90;;;12.90;99.90;;;;;;5017140;28;20065;-84
2022/10/27 01:31:38;;;;;;;17.20;5.40;;;12.90;99.90;;;;;;5035625;28;20052;-87
2022/10/27 01:34:09;;;;;;;22.35;6.43;;;13.00;99.90;;;;;;5016638;28;20093;-83
2022/10/27 01:36:37;;;;;;;21.60;7.50;;;13.10;99.90;;;;;;5016244;28;20080;-83
2022/10/27 01:39:06;;;;;;;21.38;6.90;;;13.00;99.90;;;;;;5035751;28;20049;-87
2022/10/27 01:41:38;;;;;;;21.23;6.50;;;13.10;99.90;;;;;;5017354;28;20042;-83
2022/10/27 01:44:11;;;;;;;18.10;6.95;;;13.00;99.90;;;;;;5037072;28;20056;-89
2022/10/27 01:46:38;;;;;;;26.17;7.15;;;13.10;99.90;;;;;;5019379;28;20124;-83
2022/10/27 01:49:06;;;;;;;18.38;6.78;;;13.00;99.90;;;;;;5034318;28;20053;-83
2022/10/27 01:51:32;;;;;;;20.58;7.38;;;12.90;99.90;;;;;;5034647;28;20120;-83
2022/10/27 01:53:59;;;;;;;20.83;6.57;;;12.90;99.90;;;;;;5017439;28;20103;-91
2022/10/27 01:56:36;;;;;;;23.20;7.60;;;12.80;99.90;;;;;;5035173;28;20064;-83
2022/10/27 01:59:40;;;;;;;21.63;8.27;;;12.80;99.90;;;;;;5019657;28;20054;-82
2022/10/27 02:02:35;;;;;;;19.30;6.82;;;12.70;99.90;;;;;;5021630;28;20068;-85
2022/10/27 02:05:12;;;;;;;20.38;7.70;;;12.60;99.90;;;;;;5016321;28;20497;-83
2022/10/27 02:08:08;;;;;;;19.92;8.00;;;12.60;99.90;;;;;;5033934;28;20082;-83
2022/10/27 02:10:54;;;;;;;27.15;8.63;;;12.60;99.90;;;;;;4981925;28;20049;-83
2022/10/27 02:13:20;;;;;;;23.45;11.40;;;12.50;99.90;;;;;;5020498;28;20579;-85
2022/10/27 02:15:52;;;;;;;21.63;9.38;;;12.50;99.90;;;;;;5022782;28;20053;-89
2022/10/27 02:18:32;;;;;;;21.05;10.57;;;12.40;99.90;;;;;;5034829;28;20050;-83
2022/10/27 02:21:03;;;;;;;22.33;9.68;;;12.40;99.90;;;;;;5038351;28;20045;-82
2022/10/27 02:23:29;;;;;;;25.25;9.93;;;12.40;99.90;;;;;;5036028;28;20058;-89
2022/10/27 02:26:01;;;;;;;26.05;10.52;;;12.40;99.90;;;;;;5034435;28;20064;-90
2022/10/27 02:28:51;;;;;;;35.50;11.82;;;12.50;99.90;;;;;;5025653;28;20084;-86
2022/10/27 02:31:19;;;;;;;19.60;9.60;;;12.40;99.90;;;;;;5020600;28;20076;-84
2022/10/27 02:33:46;;;;;;;22.27;10.90;;;12.40;99.90;;;;;;5038108;28;20079;-89
2022/10/27 02:36:12;;;;;;;31.20;11.77;;;12.40;99.90;;;;;;5033542;28;20057;-89
2022/10/27 02:38:38;;;;;;;24.98;11.82;;;12.40;99.90;;;;;;5035738;28;20568;-83
2022/10/27 02:41:04;;;;;;;22.00;11.38;;;12.40;99.90;;;;;;5021442;28;20057;-82
2022/10/27 02:43:30;;;;;;;22.88;10.73;;;12.40;99.90;;;;;;5024300;28;20057;-83
2022/10/27 02:45:56;;;;;;;27.30;12.65;;;12.30;99.90;;;;;;5042790;28;20409;-93
2022/10/27 02:48:22;;;;;;;29.92;13.60;;;12.40;99.90;;;;;;5042356;28;20045;-82
2022/10/27 02:50:48;;;;;;;26.92;12.85;;;12.30;99.90;;;;;;5022783;28;20049;-83
2022/10/27 02:53:14;;;;;;;24.65;12.45;;;12.40;99.90;;;;;;5017534;28;20057;-83
2022/10/27 02:55:40;;;;;;;26.75;14.20;;;12.30;99.90;;;;;;5033142;28;20041;-82
2022/10/27 02:58:06;;;;;;;28.23;14.30;;;12.30;99.90;;;;;;5033661;28;20489;-84
2022/10/27 03:00:31;;;;;;;31.90;14.35;;;12.30;99.90;;;;;;5036885;28;20120;-83
2022/10/27 03:02:57;;;;;;;33.60;13.75;;;12.30;99.90;;;;;;5015168;28;20049;-83
2022/10/27 03:05:23;;;;;;;25.45;13.45;;;12.20;99.90;;;;;;5033490;28;20045;-93
2022/10/27 03:07:49;;;;;;;24.40;13.68;;;12.20;99.90;;;;;;5015037;28;20045;-83
2022/10/27 03:10:15;;;;;;;31.52;13.25;;;12.10;99.90;;;;;;5033851;28;20054;-83
2022/10/27 03:12:41;;;;;;;23.80;13.07;;;12.20;99.90;;;;;;5035961;28;20137;-84
2022/10/27 03:15:07;;;;;;;24.17;13.30;;;12.10;99.90;;;;;;5014928;28;20084;-83
2022/10/27 03:17:33;;;;;;;25.75;12.85;;;12.10;99.90;;;;;;5032583;28;20053;-87
2022/10/27 03:19:59;;;;;;;30.45;15.57;;;12.10;99.90;;;;;;5035500;28;20054;-86
2022/10/27 03:22:25;;;;;;;31.10;16.55;;;12.10;99.90;;;;;;5017519;28;20052;-85
2022/10/27 03:24:51;;;;;;;30.25;16.58;;;12.10;99.90;;;;;;5014909;28;20072;-84
2022/10/27 03:27:17;;;;;;;31.17;15.90;;;12.10;99.90;;;;;;5014478;28;20505;-84
2022/10/27 03:29:43;;;;;;;25.73;15.18;;;12.20;99.90;;;;;;5033544;28;20129;-83
2022/10/27 03:32:09;;;;;;;31.90;17.50;;;12.20;99.90;;;;;;5035306;28;20061;-83
2022/10/27 03:34:35;;;;;;;33.00;16.30;;;12.20;99.90;;;;;;5014477;28;20500;-82
2022/10/27 03:37:00;;;;;;;32.00;15.90;;;12.20;99.90;;;;;;5032025;28;20093;-89
2022/10/27 03:39:26;;;;;;;34.63;15.50;;;12.20;99.90;;;;;;5015074;28;20079;-88
2022/10/27 03:41:52;;;;;;;28.15;15.30;;;12.20;99.90;;;;;;5034030;28;20485;-89
2022/10/27 03:44:18;;;;;;;32.95;16.50;;;12.20;99.90;;;;;;5017938;28;20060;-83
2022/10/27 03:46:44;;;;;;;27.85;15.70;;;12.30;99.90;;;;;;5000904;28;20437;-82
2022/10/27 03:49:10;;;;;;;30.23;16.92;;;12.30;99.90;;;;;;5013835;28;20509;-81
2022/10/27 03:51:36;;;;;;;31.80;16.55;;;12.40;99.90;;;;;;5014699;28;20144;-82
2022/10/27 03:54:02;;;;;;;28.70;16.92;;;12.40;99.90;;;;;;4997728;28;20057;-88
2022/10/27 03:56:28;;;;;;;27.67;17.02;;;12.40;99.90;;;;;;5015884;28;20045;-86
2022/10/27 03:58:53;;;;;;;26.25;17.10;;;12.40;99.90;;;;;;5018452;28;20417;-89
2022/10/27 04:01:19;;;;;;;33.63;15.18;;;12.40;99.90;;;;;;5033686;28;20049;-84
2022/10/27 04:03:47;;;;;;;27.45;16.63;;;12.50;99.90;;;;;;5032941;28;20083;-85
2022/10/27 04:06:13;;;;;;;33.80;16.95;;;12.50;99.90;;;;;;5014453;28;20073;-84
2022/10/27 04:08:39;;;;;;;32.88;16.50;;;12.50;99.90;;;;;;5031456;28;20663;-85
2022/10/27 04:11:05;;;;;;;36.72;17.77;;;12.50;99.90;;;;;;5014092;28;20168;-82
2022/10/27 04:13:31;;;;;;;34.42;17.65;;;12.50;99.90;;;;;;5014368;28;20045;-90
2022/10/27 04:16:00;;;;;;;32.53;16.88;;;12.40;99.90;;;;;;5016986;28;20068;-90
2022/10/27 04:18:26;;;;;;;31.33;17.33;;;12.40;99.90;;;;;;5016074;28;20532;-84
2022/10/27 04:20:52;;;;;;;26.05;16.40;;;12.40;99.90;;;;;;5031521;28;20045;-84
2022/10/27 04:23:19;;;;;;;33.55;16.52;;;12.50;99.90;;;;;;5033649;28;20061;-83
2022/10/27 04:25:45;;;;;;;29.77;16.30;;;12.50;99.90;;;;;;5031701;28;20056;-88
2022/10/27 04:28:11;;;;;;;30.13;16.80;;;12.40;99.90;;;;;;5000035;28;20482;-86
2022/10/27 04:30:37;;;;;;;29.73;17.13;;;12.40;99.90;;;;;;5014057;28;20041;-89
2022/10/27 04:33:03;;;;;;;28.88;15.38;;;12.50;99.90;;;;;;5033931;28;20101;-89
2022/10/27 04:35:29;;;;;;;24.48;14.73;;;12.40;99.90;;;;;;5035954;28;20049;-82
2022/10/27 04:37:55;;;;;;;30.70;16.45;;;12.40;99.90;;;;;;5032389;28;20526;-84
2022/10/27 04:40:21;;;;;;;25.40;15.27;;;12.40;99.90;;;;;;5003919;28;20142;-84
2022/10/27 04:42:47;;;;;;;34.10;18.83;;;12.40;99.90;;;;;;5036010;28;20064;-82
2022/10/27 04:45:14;;;;;;;34.42;15.27;;;12.40;99.90;;;;;;5038898;28;20049;-83
2022/10/27 04:47:41;;;;;;;27.77;16.20;;;12.40;99.90;;;;;;5020050;28;20092;-82
2022/10/27 04:50:07;;;;;;;34.65;17.00;;;12.40;99.90;;;;;;5036537;28;20042;-83
2022/10/27 04:52:33;;;;;;;27.17;16.33;;;12.40;99.90;;;;;;5019856;28;20068;-84
2022/10/27 04:54:59;;;;;;;24.80;16.92;;;12.40;99.90;;;;;;5015435;28;20409;-83
2022/10/27 04:57:25;;;;;;;34.13;16.95;;;12.40;99.90;;;;;;5032128;28;20054;-84
2022/10/27 04:59:51;;;;;;;29.05;17.48;;;12.40;99.90;;;;;;5017932;28;20056;-83
2022/10/27 05:02:17;;;;;;;28.98;16.27;;;12.40;99.90;;;;;;5035066;28;20389;-88
2022/10/27 05:04:43;;;;;;;34.30;15.23;;;12.40;99.90;;;;;;5031730;28;20069;-83
2022/10/27 05:07:08;;;;;;;33.55;15.50;;;12.40;99.90;;;;;;5034164;28;20049;-86
2022/10/27 05:09:37;;;;;;;31.80;16.77;;;12.40;99.90;;;;;;5033021;28;20133;-90
2022/10/27 05:12:03;;;;;;;32.88;16.35;;;12.40;99.90;;;;;;5030113;28;20052;-84
2022/10/27 05:14:29;;;;;;;26.38;15.40;;;12.40;99.90;;;;;;5013628;28;20059;-83
2022/10/27 05:16:55;;;;;;;25.85;15.15;;;12.30;99.90;;;;;;5016340;28;20057;-91
2022/10/27 05:19:21;;;;;;;31.80;16.65;;;12.30;99.90;;;;;;5031414;28;20081;-82
2022/10/27 05:21:47;;;;;;;35.80;16.30;;;12.30;99.90;;;;;;5033789;28;20477;-82
2022/10/27 05:24:13;;;;;;;28.30;16.02;;;12.30;99.90;;;;;;5015507;28;20146;-84
2022/10/27 05:26:39;;;;;;;32.97;16.45;;;12.30;99.90;;;;;;5031024;28;20054;-88
2022/10/27 05:29:05;;;;;;;30.58;16.20;;;12.30;99.90;;;;;;5013077;28;20052;-91
2022/10/27 05:31:31;;;;;;;25.27;15.63;;;12.40;99.90;;;;;;5015653;28;20050;-82
2022/10/27 05:33:57;;;;;;;31.60;15.85;;;12.40;99.90;;;;;;5012706;28;20049;-82
2022/10/27 05:36:23;;;;;;;29.98;15.38;;;12.40;99.90;;;;;;4997023;28;20049;-83
2022/10/27 05:38:49;;;;;;;31.42;16.90;;;12.40;99.90;;;;;;5034626;28;20490;-85
2022/10/27 05:41:14;;;;;;;28.42;14.70;;;12.40;99.90;;;;;;5021011;28;20072;-82
2022/10/27 05:43:40;;;;;;;30.80;15.07;;;12.40;99.90;;;;;;5031952;28;20520;-84
2022/10/27 05:46:07;;;;;;;25.58;13.48;;;12.40;99.90;;;;;;4996281;28;20050;-91
2022/10/27 05:48:33;;;;;;;33.28;15.55;;;12.50;99.90;;;;;;5014495;28;20045;-88
2022/10/27 05:50:59;;;;;;;29.77;15.20;;;12.50;99.90;;;;;;5018003;28;20046;-85
2022/10/27 05:53:25;;;;;;;31.25;16.15;;;12.50;99.90;;;;;;5002369;28;20060;-83
2022/10/27 05:55:53;;;;;;;25.25;14.15;;;12.50;99.90;;;;;;5019397;28;20136;-83
2022/10/27 05:58:19;;;;;;;31.23;14.98;;;12.50;99.90;;;;;;5016181;28;20054;-84
2022/10/27 06:00:45;;;;;;;27.20;15.13;;;12.60;99.90;;;;;;5017014;28;20392;-83
2022/10/27 06:03:22;;;;;;;26.85;13.55;;;12.50;99.90;;;;;;5034470;28;20405;-83
2022/10/27 06:05:48;;;;;;;30.30;13.98;;;12.60;99.90;;;;;;5019940;28;20350;-85
2022/10/27 06:08:15;;;;;;;30.50;15.30;;;12.60;99.90;;;;;;5033973;28;20042;-94
2022/10/27 06:10:42;;;;;;;22.08;13.95;;;12.60;99.90;;;;;;5020144;28;20065;-85
2022/10/27 06:13:10;;;;;;;24.60;13.85;;;12.60;99.90;;;;;;5018047;28;20049;-86
2022/10/27 06:15:37;;;;;;;25.23;14.73;;;12.60;99.90;;;;;;5015954;28;20054;-84
2022/10/27 06:18:03;;;;;;;33.85;14.23;;;12.60;99.90;;;;;;5033845;28;20050;-85
2022/10/27 06:20:29;;;;;;;31.38;16.17;;;12.60;99.90;;;;;;5016314;28;20044;-86
2022/10/27 06:22:55;;;;;;;26.08;14.70;;;12.60;99.90;;;;;;5016711;28;20447;-87
2022/10/27 06:25:21;;;;;;;27.00;15.18;;;12.60;99.90;;;;;;5036754;28;20049;-84
2022/10/27 06:27:47;;;;;;;28.52;15.13;;;12.60;99.90;;;;;;5023899;28;20084;-94
2022/10/27 06:30:13;;;;;;;25.63;14.70;;;12.60;99.90;;;;;;5020960;28;20076;-90
2022/10/27 06:32:40;;;;;;;30.13;15.07;;;12.60;99.90;;;;;;5036700;28;20083;-89
2022/10/27 06:35:07;;;;;;;27.08;15.07;;;12.60;99.90;;;;;;5017773;28;20057;-86
2022/10/27 06:37:36;;;;;;;25.05;14.50;;;12.60;99.90;;;;;;5017913;28;20057;-84
2022/10/27 06:40:07;;;;;;;30.80;15.30;;;12.60;99.90;;;;;;5017640;28;20042;-83
2022/10/27 06:42:35;;;;;;;24.60;14.13;;;12.60;99.90;;;;;;4999647;28;20053;-82
2022/10/27 06:45:02;;;;;;;32.38;16.23;;;12.60;99.90;;;;;;5018259;28;20045;-82
2022/10/27 06:47:28;;;;;;;33.55;15.70;;;12.70;99.90;;;;;;5022060;28;20046;-88
2022/10/27 06:49:54;;;;;;;27.38;14.52;;;12.70;99.90;;;;;;5019993;28;20064;-81
2022/10/27 06:52:20;;;;;;;33.55;16.42;;;12.70;99.90;;;;;;5034005;28;20146;-83
2022/10/27 06:54:46;;;;;;;27.60;15.32;;;12.70;99.90;;;;;;5033776;28;20060;-82
2022/10/27 06:57:12;;;;;;;29.38;14.52;;;12.70;99.90;;;;;;5034699;28;20501;-85
2022/10/27 06:59:38;;;;;;;25.05;13.93;;;12.70;99.90;;;;;;5033603;28;20053;-83
2022/10/27 07:02:04;;;;;;;23.63;14.30;;;12.70;99.90;;;;;;5033130;28;20056;-89
2022/10/27 07:04:30;;;;;;;25.65;13.98;;;12.80;99.90;;;;;;5018704;28;20049;-84
2022/10/27 07:06:56;;;;;;;26.08;14.57;;;12.80;99.90;;;;;;5036139;28;20111;-85
2022/10/27 07:09:22;;;;;;;29.10;13.57;;;12.80;99.90;;;;;;5016283;28;20089;-90
2022/10/27 07:11:48;;;;;;;28.63;14.45;;;12.80;99.90;;;;;;5016513;28;20099;-81
2022/10/27 07:14:17;;;;;;;24.23;14.15;;;12.90;99.90;;;;;;5016496;28;20054;-84
2022/10/27 07:16:42;;;;;;;28.48;13.38;;;12.90;99.90;;;;;;5033366;28;20053;-85
2022/10/27 07:19:08;;;;;;;26.45;13.32;;;12.90;99.90;;;;;;4999685;28;20132;-86
2022/10/27 07:21:34;;;;;;;29.25;14.32;;;12.90;99.90;;;;;;5015779;28;20561;-89
2022/10/27 07:24:00;;;;;;;25.23;13.05;;;12.90;99.90;;;;;;5034747;28;20052;-85
2022/10/27 07:26:26;;;;;;;21.42;12.77;;;12.90;99.90;;;;;;5014912;28;20080;-85
2022/10/27 07:28:52;;;;;;;28.40;13.98;;;12.90;99.90;;;;;;5033022;28;20440;-82
2022/10/27 07:31:18;;;;;;;33.17;14.52;;;13.00;99.90;;;;;;5016789;28;20496;-85
2022/10/27 07:33:44;;;;;;;27.08;13.18;;;13.00;99.90;;;;;;5015667;28;20061;-83
2022/10/27 07:36:10;;;;;;;25.65;14.35;;;13.00;99.90;;;;;;5033587;28;20045;-83
2022/10/27 07:38:37;;;;;;;21.17;14.38;;;13.10;99.90;;;;;;5036082;28;20057;-85
2022/10/27 07:41:04;;;;;;;30.75;15.85;;;13.10;99.90;;;;;;5037933;28;20049;-83
2022/10/27 07:43:30;;;;;;;22.80;13.35;;;13.10;99.90;;;;;;5034506;28;20053;-82
2022/10/27 07:45:56;;;;;;;27.08;12.95;;;13.20;99.90;;;;;;5035487;28;20053;-83
2022/10/27 07:48:22;;;;;;;26.55;13.63;;;13.20;99.90;;;;;;5014371;28;20143;-82
2022/10/27 07:50:48;;;;;;;29.40;13.98;;;13.30;99.90;;;;;;5032591;28;20128;-82
2022/10/27 07:53:15;;;;;;;26.00;13.88;;;13.30;99.90;;;;;;5018407;28;20136;-84
2022/10/27 07:55:41;;;;;;;24.83;13.25;;;13.40;99.90;;;;;;5033175;28;20088;-82
2022/10/27 07:58:10;;;;;;;22.58;13.98;;;13.40;99.90;;;;;;5031952;28;20076;-85
2022/10/27 08:00:39;;;;;;;28.60;13.05;;;13.40;99.90;;;;;;5032081;28;20493;-83
2022/10/27 08:03:10;;;;;;;22.77;13.13;;;13.50;99.90;;;;;;5033252;28;20129;-84
2022/10/27 08:05:36;;;;;;;20.98;12.13;;;13.50;99.90;;;;;;5015241;28;20046;-84
2022/10/27 08:08:05;;;;;;;24.75;12.13;;;13.60;99.90;;;;;;5016237;28;20132;-82
2022/10/27 08:10:32;;;;;;;21.08;11.95;;;13.60;99.90;;;;;;5015993;28;20386;-90
2022/10/27 08:12:58;;;;;;;19.77;12.00;;;13.70;99.90;;;;;;5031790;28;20104;-83
2022/10/27 08:15:25;;;;;;;20.08;11.25;;;13.70;99.90;;;;;;5015203;28;20050;-83
2022/10/27 08:17:58;;;;;;;21.63;10.82;;;13.70;99.90;;;;;;5003666;28;20085;-82
2022/10/27 08:20:24;;;;;;;19.10;10.40;;;13.70;99.90;;;;;;5032579;28;20128;-85
2022/10/27 08:22:55;;;;;;;19.27;10.40;;;13.80;99.90;;;;;;5031974;28;20089;-85
2022/10/27 08:25:21;;;;;;;15.95;10.00;;;13.80;99.90;;;;;;5034230;28;20104;-85
2022/10/27 08:27:47;;;;;;;16.27;9.65;;;13.80;99.90;;;;;;5019939;28;20108;-83
2022/10/27 08:30:13;;;;;;;18.10;9.55;;;13.80;99.90;;;;;;5016439;28;20460;-83
2022/10/27 08:32:39;;;;;;;17.83;10.18;;;13.90;99.90;;;;;;5014542;28;20048;-88
2022/10/27 08:35:05;;;;;;;17.05;11.15;;;14.00;99.90;;;;;;5035082;28;20053;-83
2022/10/27 08:37:31;;;;;;;19.15;9.80;;;14.10;99.90;;;;;;5032016;28;20053;-82
2022/10/27 08:39:57;;;;;;;19.50;8.98;;;14.20;99.90;;;;;;5014412;28;20049;-83
2022/10/27 08:42:53;;;;;;;20.55;8.55;;;14.30;99.90;;;;;;5016195;28;20064;-85
2022/10/27 08:45:29;;;;;;;;;;;14.40;99.90;;;;;;5016777;28;20099;-85
2022/10/27 08:47:57;;;;;;;14.05;8.07;;;14.60;99.90;;;;;;5031237;28;19917;-84
2022/10/27 08:50:25;;;;;;;16.90;9.20;;;14.70;99.90;;;;;;5031742;28;20148;-84
2022/10/27 08:52:57;;;;;;;14.98;7.60;;;14.80;99.90;;;;;;5035428;28;20041;-83
2022/10/27 08:55:34;;;;;;;13.63;7.72;;;14.80;99.90;;;;;;5013234;28;20092;-84
2022/10/27 08:58:27;;;;;;;13.68;6.57;;;14.90;99.90;;;;;;5013803;28;20203;-83
2022/10/27 09:01:01;;;;;;;22.02;8.30;;;15.00;99.90;;;;;;5032716;28;20057;-88
2022/10/27 09:03:58;;;;;;;9.45;6.20;;;15.00;99.90;;;;;;5015724;28;20050;-86
2022/10/27 09:06:35;;;;;;;17.58;6.53;;;15.10;99.90;;;;;;5031503;28;20049;-83
2022/10/27 09:09:22;;;;;;;9.85;6.68;;;15.10;99.90;;;;;;5031372;28;20069;-84
2022/10/27 09:12:09;;;;;;;18.45;7.05;;;15.20;99.90;;;;;;5031073;28;20057;-85
2022/10/27 09:14:47;;;;;;;16.70;6.78;;;15.30;99.90;;;;;;5032178;28;20052;-81
2022/10/27 09:17:24;;;;;;;12.63;6.93;;;15.40;99.90;;;;;;5036084;28;20084;-82
2022/10/27 09:20:00;;;;;;;11.50;5.40;;;15.50;99.90;;;;;;5038317;28;20053;-86
2022/10/27 09:22:29;;;;;;;14.85;6.30;;;15.70;99.90;;;;;;5017217;28;20054;-87
2022/10/27 09:25:09;;;;;;;11.57;5.78;;;15.80;99.90;;;;;;5028890;28;20093;-83
2022/10/27 09:27:37;;;;;;;10.05;5.53;;;15.90;99.90;;;;;;5011387;28;20049;-85
2022/10/27 09:30:05;;;;;;;11.60;5.90;;;16.00;99.90;;;;;;5042895;28;20490;-83
2022/10/27 09:32:35;;;;;;;9.98;5.40;;;16.10;99.90;;;;;;5024600;28;20042;-84
2022/10/27 09:35:08;;;;;;;10.13;5.18;;;16.20;99.90;;;;;;5043032;28;20057;-84
2022/10/27 09:37:39;;;;;;;10.63;4.73;;;16.20;99.90;;;;;;5041981;28;20049;-86
2022/10/27 09:40:12;;;;;;;8.27;4.95;;;16.20;99.90;;;;;;5003240;28;20068;-86
2022/10/27 09:42:38;;;;;;;12.82;6.30;;;16.30;99.90;;;;;;5019053;28;20056;-87
2022/10/27 09:45:17;;;;;;;9.73;4.57;;;16.30;99.90;;;;;;5018423;28;20135;-89
2022/10/27 09:47:47;;;;;;;10.45;5.43;;;16.30;99.90;;;;;;5036748;28;20053;-88
2022/10/27 09:50:23;;;;;;;10.95;5.47;;;16.40;99.90;;;;;;5000903;28;20057;-89
2022/10/27 09:52:49;;;;;;;13.25;5.47;;;16.40;99.90;;;;;;5035634;28;20053;-86
2022/10/27 09:55:15;;;;;;;9.50;5.10;;;16.50;99.90;;;;;;5017150;28;20053;-87
2022/10/27 09:57:43;;;;;;;13.93;5.40;;;16.50;99.90;;;;;;5018389;28;20049;-89
2022/10/27 10:00:15;;;;;;;11.65;5.60;;;16.50;99.90;;;;;;5035014;28;20053;-87
2022/10/27 10:02:54;;;;;;;12.60;5.60;;;16.60;99.90;;;;;;5034404;28;20057;-90
2022/10/27 10:05:26;;;;;;;14.88;5.40;;;16.60;99.90;;;;;;5033997;28;20501;-83
2022/10/27 10:07:53;;;;;;;11.98;4.63;;;16.60;99.90;;;;;;5016680;28;20397;-86
2022/10/27 10:10:23;;;;;;;13.63;5.25;;;16.60;99.90;;;;;;5019889;28;20456;-82
2022/10/27 10:13:05;;;;;;;8.50;4.72;;;16.60;99.90;;;;;;5020729;28;20536;-85
2022/10/27 10:15:39;;;;;;;11.20;5.05;;;16.60;99.90;;;;;;5036418;28;20568;-82
2022/10/27 10:18:22;;;;;;;8.60;4.18;;;16.70;99.90;;;;;;5041299;28;20045;-81
2022/10/27 10:21:03;;;;;;;12.73;4.38;;;16.70;99.90;;;;;;5017326;28;20104;-88
2022/10/27 10:23:47;;;;;;;12.32;4.63;;;16.70;99.90;;;;;;5016006;28;20598;-81
2022/10/27 10:26:19;;;;;;;10.17;4.43;;;16.80;99.90;;;;;;5036222;28;20057;-83
2022/10/27 10:28:46;;;;;;;10.07;5.07;;;16.80;99.90;;;;;;5035468;28;20056;-81
2022/10/27 10:31:15;;;;;;;8.65;4.13;;;16.90;99.90;;;;;;5021330;28;20049;-82
2022/10/27 10:33:45;;;;;;;11.60;4.68;;;16.90;99.90;;;;;;5004889;28;20132;-85
2022/10/27 10:36:35;;;;;;;11.05;5.72;;;17.00;99.90;;;;;;5036737;28;20057;-85
2022/10/27 10:39:02;;;;;;;10.10;4.00;;;17.00;99.90;;;;;;5033318;28;20528;-86
2022/10/27 10:41:31;;;;;;;8.55;3.70;;;17.10;99.90;;;;;;5033323;28;20053;-81
2022/10/27 10:44:14;;;;;;;9.77;3.92;;;17.20;99.90;;;;;;5033507;28;20052;-86
2022/10/27 10:46:52;;;;;;;11.05;4.13;;;17.30;99.90;;;;;;5035555;28;20080;-82
2022/10/27 10:49:22;;;;;;;11.73;4.82;;;17.30;99.90;;;;;;5035355;28;20401;-81
2022/10/27 10:51:55;;;;;;;12.23;4.85;;;17.30;99.90;;;;;;5033979;28;20083;-83
2022/10/27 10:54:43;;;;;;;10.73;3.92;;;17.40;99.90;;;;;;5033024;28;20045;-91
2022/10/27 10:57:37;;;;;;;10.95;3.92;;;17.50;99.90;;;;;;5032776;28;20053;-87
2022/10/27 11:00:05;;;;;;;8.45;3.45;;;17.60;99.90;;;;;;5014823;28;20140;-81
2022/10/27 11:02:33;;;;;;;8.15;3.63;;;17.70;99.90;;;;;;5015359;28;20647;-81
2022/10/27 11:05:21;;;;;;;9.63;3.13;;;17.80;99.90;;;;;;5018492;28;20061;-84
2022/10/27 11:07:49;;;;;;;9.50;3.45;;;18.10;99.90;;;;;;5033078;28;20052;-85
2022/10/27 11:10:25;;;;;;;10.20;3.40;;;18.50;99.90;;;;;;5016328;28;20056;-82
2022/10/27 11:13:10;;;;;;;8.60;3.15;;;19.10;99.90;;;;;;5037913;28;20549;-85
2022/10/27 11:15:55;;;;;;;10.45;4.20;;;19.40;99.90;;;;;;5033419;28;20057;-82
2022/10/27 11:18:26;;;;;;;7.90;3.10;;;19.70;99.90;;;;;;5037063;28;20057;-82
2022/10/27 11:21:17;;;;;;;7.35;2.72;;;20.40;99.90;;;;;;5037204;28;20041;-81
2022/10/27 11:23:57;;;;;;;6.22;2.42;;;21.10;99.90;;;;;;5021869;28;20500;-82
2022/10/27 11:26:54;;;;;;;9.60;1.70;;;21.30;99.90;;;;;;5037195;28;20057;-88
2022/10/27 11:29:34;;;;;;;5.90;1.75;;;21.30;99.90;;;;;;4999062;28;20515;-88
2022/10/27 11:32:09;;;;;;;8.15;2.33;;;21.50;99.90;;;;;;5034117;28;20160;-85
2022/10/27 11:34:56;;;;;;;4.85;1.75;;;21.20;99.90;;;;;;5034145;28;20049;-84
2022/10/27 11:38:00;;;;;;;9.25;2.28;;;20.90;99.90;;;;;;5032881;28;20049;-84
2022/10/27 11:40:42;;;;;;;6.47;2.05;;;20.60;99.90;;;;;;4999963;28;20045;-83
2022/10/27 11:43:22;;;;;;;6.50;1.80;;;20.70;99.90;;;;;;5032290;28;20060;-83
2022/10/27 11:46:02;;;;;;;5.20;1.75;;;21.40;99.90;;;;;;5034467;28;20052;-84
2022/10/27 11:48:32;;;;;;;5.05;1.80;;;22.30;99.90;;;;;;5032584;28;20085;-82
2022/10/27 11:51:15;;;;;;;6.80;1.60;;;23.20;99.90;;;;;;5036214;28;20077;-81
2022/10/27 11:53:40;;;;;;;5.85;1.60;;;24.20;99.90;;;;;;5016753;28;20136;-83
2022/10/27 11:56:18;;;;;;;4.93;1.50;;;25.30;99.90;;;;;;5019197;28;20454;-82
2022/10/27 11:59:22;;;;;;;7.57;1.90;;;25.70;97.60;;;;;;5035980;28;20505;-83
2022/10/27 12:01:54;;;;;;;6.38;2.08;;;25.80;96.40;;;;;;4999162;28;20140;-81
2022/10/27 12:05:02;;;;;;;10.25;1.65;;;25.60;97.60;;;;;;5033567;28;20051;-82
2022/10/27 12:07:57;;;;;;;7.95;2.92;;;25.20;97.60;;;;;;4933175;29;20102;-82
2022/10/27 12:10:34;;;;;;;6.95;3.63;;;24.70;96.50;;;;;;5013764;28;20049;-83
2022/10/27 12:13:06;;;;;;;9.55;2.15;;;24.50;98.50;;;;;;5031683;28;20049;-83
2022/10/27 12:15:54;;;;;;;5.95;1.83;;;24.20;99.10;;;;;;5031734;28;20383;-83
2022/10/27 12:18:46;;;;;;;5.55;1.92;;;24.00;98.20;;;;;;5032361;28;20041;-84
2022/10/27 12:21:15;;;;;;;4.90;1.55;;;24.10;98.90;;;;;;4997944;28;20520;-85
2022/10/27 12:23:54;;;;;;;6.15;1.60;;;24.50;98.50;;;;;;5032636;28;20584;-84
2022/10/27 12:26:34;;;;;;;6.18;1.90;;;24.90;97.90;;;;;;5031373;28;20060;-85
2022/10/27 12:29:04;;;;;;;4.90;1.70;;;24.70;97.40;;;;;;5013674;28;20076;-83
2022/10/27 12:31:35;;;;;;;8.65;1.65;;;24.10;98.00;;;;;;5013920;28;20118;-84
2022/10/27 12:34:03;;;;;;;5.78;1.60;;;23.40;98.70;;;;;;5031559;28;20535;-90
2022/10/27 12:36:40;;;;;;;6.72;1.23;;;22.90;99.70;;;;;;5033218;28;20049;-84
2022/10/27 12:39:39;;;;;;;3.85;1.42;;;22.50;99.90;;;;;;5031471;28;20130;-82
2022/10/27 12:42:34;;;;;;;8.00;1.17;;;22.00;99.90;;;;;;5031157;28;20523;-86
2022/10/27 12:45:06;;;;;;;;;;;21.70;99.90;;;;;;5032281;28;20049;-84
2022/10/27 12:48:06;;;;;;;8.23;1.38;;;21.60;99.90;;;;;;5013664;28;20332;-83
2022/10/27 12:51:07;;;;;;;6.78;1.20;;;21.60;99.90;;;;;;5031134;28;20049;-83
2022/10/27 12:53:42;;;;;;;4.55;1.38;;;21.50;99.90;;;;;;5031195;28;20049;-90
2022/10/27 12:56:29;;;;;;;4.15;1.20;;;21.40;99.90;;;;;;5017405;28;20061;-82